createdAt,value
2019-02-05T00:01:19.607Z,53.98
2019-02-05T00:06:26.332Z,53.82
2019-02-05T00:11:33.664Z,54.21
2019-02-05T00:16:42.171Z,53.61
2019-02-05T00:21:48.213Z,53.13
2019-02-05T00:26:55.021Z,53.94
2019-02-05T00:32:02.220Z,53.86
2019-02-05T00:37:08.987Z,53.34
2019-02-05T00:42:15.192Z,53.70
2019-02-05T00:47:21.212Z,53.68
2019-02-05T00:52:27.571Z,54.42
2019-02-05T00:57:34.270Z,54.01
2019-02-05T01:02:42.019Z,54.02
2019-02-05T01:07:48.334Z,53.90
2019-02-05T01:12:54.794Z,53.92
2019-02-05T01:18:00.647Z,54.13
2019-02-05T01:23:06.310Z,53.40
2019-02-05T01:28:12.214Z,53.84
2019-02-05T01:33:18.544Z,53.46
2019-02-05T01:38:24.714Z,53.68
2019-02-05T01:43:31.415Z,53.69
2019-02-05T01:48:37.060Z,53.45
2019-02-05T01:53:44.584Z,53.28
2019-02-05T01:58:50.443Z,53.75
2019-02-05T02:03:56.361Z,53.89
2019-02-05T02:09:04.856Z,53.59
2019-02-05T02:14:13.211Z,53.23
2019-02-05T02:19:19.059Z,53.48
2019-02-05T02:24:25.361Z,52.76
2019-02-05T02:29:31.195Z,53.48
2019-02-05T02:34:37.429Z,53.27
2019-02-05T02:39:43.471Z,53.37
2019-02-05T02:44:49.274Z,53.49
2019-02-05T02:49:55.843Z,52.72
2019-02-05T02:55:01.628Z,53.07
2019-02-05T03:00:19.044Z,52.56
2019-02-05T03:05:25.556Z,52.97
2019-02-05T03:10:32.470Z,52.57
2019-02-05T03:15:39.369Z,52.51
2019-02-05T03:20:45.978Z,52.08
2019-02-05T03:25:51.835Z,51.82
2019-02-05T03:30:59.768Z,51.62
2019-02-05T03:36:06.441Z,51.66
2019-02-05T03:41:13.555Z,51.62
2019-02-05T03:46:20.363Z,51.19
2019-02-05T03:51:31.999Z,51.10
2019-02-05T03:56:52.612Z,51.77
2019-02-05T04:02:19.695Z,50.98
2019-02-05T04:07:43.054Z,51.42
2019-02-05T04:13:03.854Z,51.20
2019-02-05T04:18:43.178Z,51.26
2019-02-05T04:24:04.150Z,50.79
2019-02-05T04:29:16.743Z,50.52
2019-02-05T04:34:42.039Z,51.21
2019-02-05T04:40:09.544Z,52.96
2019-02-05T04:45:33.792Z,56.48
2019-02-05T04:50:41.140Z,57.69
2019-02-05T04:56:20.131Z,57.25
2019-02-05T05:01:32.335Z,56.77
2019-02-05T05:06:53.032Z,56.62
2019-02-05T05:11:58.816Z,56.54
2019-02-05T05:17:05.263Z,56.27
2019-02-05T05:22:12.173Z,55.55
2019-02-05T05:27:20.316Z,55.61
2019-02-05T05:32:26.307Z,55.07
2019-02-05T05:37:31.943Z,55.45
2019-02-05T05:42:38.119Z,55.20
2019-02-05T05:47:45.606Z,55.75
2019-02-05T05:52:53.525Z,55.15
2019-02-05T05:58:00.034Z,55.34
2019-02-05T06:03:05.858Z,54.51
2019-02-05T06:08:14.016Z,54.08
2019-02-05T06:13:19.940Z,54.38
2019-02-05T06:18:26.158Z,54.49
2019-02-05T06:23:32.396Z,53.60
2019-02-05T06:28:40.265Z,53.87
2019-02-05T06:33:46.109Z,54.44
2019-02-05T06:38:52.940Z,53.52
2019-02-05T06:43:59.045Z,53.51
2019-02-05T06:49:05.533Z,53.41
2019-02-05T06:54:12.774Z,52.89
2019-02-05T06:59:19.195Z,53.52
2019-02-05T07:04:25.806Z,53.31
2019-02-05T07:09:31.524Z,53.90
2019-02-05T07:14:37.413Z,53.55
2019-02-05T07:19:44.282Z,53.17
2019-02-05T07:24:50.433Z,53.01
2019-02-05T07:29:56.793Z,53.61
2019-02-05T07:35:02.835Z,53.41
2019-02-05T07:40:15.253Z,53.66
2019-02-05T07:45:22.613Z,53.69
2019-02-05T07:50:29.144Z,53.82
2019-02-05T07:55:36.033Z,54.23
2019-02-05T08:00:41.759Z,53.74
2019-02-05T08:05:48.266Z,53.29
2019-02-05T08:10:53.893Z,53.48
2019-02-05T08:16:01.147Z,53.41
2019-02-05T08:21:07.268Z,53.56
2019-02-05T08:26:14.574Z,53.61
2019-02-05T08:31:21.343Z,53.56
2019-02-05T08:36:27.449Z,53.61
2019-02-05T08:41:35.369Z,52.68
2019-02-05T08:46:43.357Z,52.78
2019-02-05T08:51:53.842Z,52.36
2019-02-05T08:57:00.792Z,52.99
2019-02-05T09:02:08.607Z,52.29
2019-02-05T09:07:17.507Z,52.11
2019-02-05T09:12:23.641Z,51.42
2019-02-05T09:17:31.563Z,51.61
2019-02-05T09:22:40.124Z,51.00
2019-02-05T09:27:46.274Z,51.40
2019-02-05T09:32:54.398Z,51.50
2019-02-05T09:38:01.731Z,51.52
2019-02-05T09:43:08.554Z,51.88
2019-02-05T09:48:15.489Z,51.34
2019-02-05T09:53:22.617Z,51.31
2019-02-05T09:58:28.589Z,50.78
2019-02-05T10:03:35.588Z,50.81
2019-02-05T10:08:41.522Z,52.83
2019-02-05T10:13:47.839Z,52.30
2019-02-05T10:18:54.753Z,52.03
2019-02-05T10:24:00.868Z,53.19
2019-02-05T10:29:06.730Z,53.41
2019-02-05T10:34:15.871Z,54.28
2019-02-05T10:39:24.620Z,53.17
2019-02-05T10:44:32.959Z,53.28
2019-02-05T10:49:39.155Z,52.35
2019-02-05T10:54:45.313Z,52.84
2019-02-05T10:59:54.289Z,53.84
2019-02-05T11:04:58.971Z,52.55
2019-02-05T11:10:08.422Z,54.57
2019-02-05T11:15:20.913Z,53.28
2019-02-05T11:20:28.659Z,53.44
2019-02-05T11:25:35.972Z,53.30
2019-02-05T11:30:45.402Z,52.86
2019-02-05T11:35:51.768Z,53.41
2019-02-05T11:40:58.030Z,53.62
2019-02-05T11:46:04.364Z,53.78
2019-02-05T11:51:10.594Z,53.25
2019-02-05T11:56:17.639Z,53.74
2019-02-05T12:01:24.115Z,54.08
2019-02-05T12:06:30.315Z,55.31
2019-02-05T12:11:38.183Z,56.02
2019-02-05T12:16:44.460Z,54.30
2019-02-05T12:21:51.594Z,54.06
2019-02-05T12:26:58.221Z,54.45
2019-02-05T12:32:06.679Z,54.70
2019-02-05T12:37:12.929Z,53.68
2019-02-05T12:42:20.131Z,54.40
2019-02-05T12:47:25.908Z,54.11
2019-02-05T12:52:34.543Z,53.52
2019-02-05T12:57:40.782Z,53.98
2019-02-05T13:02:46.593Z,55.60
2019-02-05T13:07:52.953Z,53.69
2019-02-05T13:13:02.526Z,52.95
2019-02-05T13:18:08.644Z,53.17
2019-02-05T13:23:15.026Z,55.87
2019-02-05T13:28:20.730Z,54.55
2019-02-05T13:33:27.401Z,54.82
2019-02-05T13:38:33.988Z,54.72
2019-02-05T13:43:41.485Z,55.72
2019-02-05T13:48:47.869Z,55.85
2019-02-05T13:53:54.349Z,55.75
2019-02-05T13:59:01.756Z,54.45
2019-02-05T14:04:09.093Z,55.13
2019-02-05T14:09:15.449Z,56.30
2019-02-05T14:14:22.028Z,55.23
2019-02-05T14:19:27.947Z,56.37
2019-02-05T14:24:34.433Z,56.73
2019-02-05T14:29:40.808Z,55.94
2019-02-05T14:34:46.959Z,56.22
2019-02-05T14:39:53.763Z,56.19
2019-02-05T14:45:02.219Z,57.25
2019-02-05T14:50:11.365Z,55.51
2019-02-05T14:55:17.289Z,56.36
2019-02-05T15:00:34.741Z,55.67
2019-02-05T15:05:41.643Z,54.98
2019-02-05T15:10:49.436Z,56.47
2019-02-05T15:15:55.884Z,57.39
2019-02-05T15:21:02.138Z,56.29
2019-02-05T15:26:08.491Z,55.24
2019-02-05T15:31:14.700Z,56.24
2019-02-05T15:36:23.125Z,55.46
2019-02-05T15:41:30.291Z,55.26
2019-02-05T15:46:36.813Z,56.17
2019-02-05T15:51:43.087Z,55.64
2019-02-05T15:56:54.002Z,57.62
2019-02-05T16:02:06.351Z,57.55
2019-02-05T16:07:09.373Z,56.65
2019-02-05T16:12:15.332Z,56.87
2019-02-05T16:17:21.060Z,57.30
2019-02-05T16:22:29.027Z,57.25
2019-02-05T16:27:35.264Z,57.48
2019-02-05T16:32:44.371Z,56.85
2019-02-05T16:38:12.667Z,57.63
2019-02-05T16:43:20.102Z,57.77
2019-02-05T16:48:28.394Z,58.19
2019-02-05T16:53:34.885Z,58.88
2019-02-05T16:58:41.803Z,57.67
2019-02-05T17:03:47.779Z,57.25
2019-02-05T17:08:56.534Z,56.92
2019-02-05T17:14:03.605Z,57.22
2019-02-05T17:19:11.034Z,56.37
2019-02-05T17:24:16.738Z,57.64
2019-02-05T17:29:22.548Z,56.33
2019-02-05T17:34:28.276Z,53.65
2019-02-05T17:39:34.373Z,54.92
2019-02-05T17:44:41.567Z,55.72
2019-02-05T17:49:47.899Z,57.54
2019-02-05T17:54:54.235Z,56.74
2019-02-05T18:00:00.231Z,57.67
2019-02-05T18:05:09.395Z,56.60
2019-02-05T18:10:18.937Z,56.56
2019-02-05T18:15:27.736Z,58.64
2019-02-05T18:20:35.498Z,57.42
2019-02-05T18:25:55.729Z,58.67
2019-02-05T18:31:03.354Z,58.50
2019-02-05T18:36:09.987Z,57.83
2019-02-05T18:41:17.026Z,57.01
2019-02-05T18:46:23.967Z,57.15
2019-02-05T18:51:31.372Z,55.67
2019-02-05T18:56:37.179Z,55.67
2019-02-05T19:01:43.588Z,55.23
2019-02-05T19:06:51.015Z,55.20
2019-02-05T19:11:57.217Z,55.28
2019-02-05T19:17:03.929Z,55.40
2019-02-05T19:22:11.202Z,55.94
2019-02-05T19:27:18.743Z,56.43
2019-02-05T19:32:26.429Z,55.83
2019-02-05T19:37:32.885Z,55.10
2019-02-05T19:42:40.254Z,55.10
2019-02-05T19:47:46.793Z,55.87
2019-02-05T19:52:53.252Z,56.29
2019-02-05T19:58:00.317Z,56.79
2019-02-05T20:03:08.679Z,56.25
2019-02-05T20:08:14.821Z,56.56
2019-02-05T20:13:21.642Z,56.75
2019-02-05T20:18:28.908Z,55.71
2019-02-05T20:23:37.347Z,55.64
2019-02-05T20:28:43.551Z,55.17
2019-02-05T20:33:51.188Z,55.57
2019-02-05T20:38:58.091Z,54.41
2019-02-05T20:44:07.079Z,53.70
2019-02-05T20:49:12.835Z,54.43
2019-02-05T20:54:19.294Z,54.01
2019-02-05T20:59:25.411Z,53.86
2019-02-05T21:04:35.357Z,53.47
2019-02-05T21:09:42.221Z,53.65
2019-02-05T21:14:47.954Z,53.27
2019-02-05T21:19:54.739Z,53.78
2019-02-05T21:25:00.600Z,53.90
2019-02-05T21:30:13.746Z,53.54
2019-02-05T21:35:21.320Z,54.32
2019-02-05T21:40:31.345Z,54.24
2019-02-05T21:45:40.361Z,54.04
2019-02-05T21:50:47.551Z,53.66
2019-02-05T21:55:54.039Z,53.62
2019-02-05T22:01:01.991Z,55.72
2019-02-05T22:06:08.834Z,54.66
2019-02-05T22:11:14.868Z,54.64
2019-02-05T22:16:21.095Z,54.70
2019-02-05T22:21:26.915Z,55.25
2019-02-05T22:26:35.209Z,54.64
2019-02-05T22:31:41.769Z,54.85
2019-02-05T22:36:48.416Z,54.84
2019-02-05T22:41:54.096Z,54.99
2019-02-05T22:47:00.618Z,54.49
2019-02-05T22:52:06.635Z,54.95
2019-02-05T22:57:12.495Z,54.68
2019-02-05T23:02:19.354Z,53.81
2019-02-05T23:07:27.498Z,53.38
2019-02-05T23:12:35.406Z,53.94
2019-02-05T23:17:42.105Z,54.19
2019-02-05T23:22:49.608Z,54.36
2019-02-05T23:27:56.192Z,54.88
2019-02-05T23:33:02.197Z,54.51
2019-02-05T23:38:10.225Z,56.15
2019-02-05T23:43:16.468Z,55.32
2019-02-05T23:48:23.016Z,54.59
2019-02-05T23:53:29.465Z,55.24
2019-02-05T23:58:35.624Z,55.42
